Time;durP1;ratioP1;P1;durP2;ratioP2;P2;SDS_P1;SDS_P2;PMS_P1;PMS_P2;Temp;Humidity;BMP_temperature;BMP_pressure;BME280_temperature;BME280_humidity;BME280_pressure;Samples;Min_cycle;Max_cycle;Signal;HPM_P1;HPM_P2
2023/10/03 00:01:29;;;;;;;;;;;;;;;;;;5016811;28;20379;-23
2023/10/03 00:03:56;;;;;;;;;;;;;;;;;;5016734;28;19925;-24
2023/10/03 00:06:22;;;;;;;;;;;;;;;;;;5017055;28;20230;-22
2023/10/03 00:08:48;;;;;;;;;;;;;;;;;;5016699;28;19916;-27
2023/10/03 00:11:15;;;;;;;;;;;;;;;;;;5015663;28;19909;-24
2023/10/03 00:13:41;;;;;;;;;;;;;;;;;;5016827;28;19920;-23
2023/10/03 00:16:08;;;;;;;;;;;;;;;;;;5016547;28;19941;-26
2023/10/03 00:18:34;;;;;;;;;;;;;;;;;;5016703;28;19924;-22
2023/10/03 00:21:00;;;;;;;;;;;;;;;;;;5016423;28;19910;-25
2023/10/03 00:23:27;;;;;;;;;;;;;;;;;;5016494;28;19964;-22
2023/10/03 00:25:59;;;;;;;;;;;;;;;;;;5016373;28;19921;-26
2023/10/03 00:28:26;;;;;;;;;;;;;;;;;;5016278;28;19909;-23
2023/10/03 00:30:52;;;;;;;;;;;;;;;;;;5016520;28;19920;-23
2023/10/03 00:33:21;;;;;;;;;;;;;;;;;;5016170;28;19909;-27
2023/10/03 00:35:47;;;;;;;;;;;;;;;;;;5016150;28;19919;-35
2023/10/03 00:38:16;;;;;;;;;;;;;;;;;;5016067;28;20027;-28
2023/10/03 00:40:42;;;;;;;;;;;;;;;;;;5016358;28;19996;-27
2023/10/03 00:43:08;;;;;;;;;;;;;;;;;;5016141;28;19991;-28
2023/10/03 00:45:34;;;;;;;;;;;;;;;;;;5016374;28;19988;-26
2023/10/03 00:48:00;;;;;;;;;;;;;;;;;;5015995;28;20340;-30
2023/10/03 00:50:26;;;;;;;;;;;;;;;;;;5015952;28;19948;-27
2023/10/03 00:52:55;;;;;;;;;;;;;;;;;;5016089;28;20256;-27
2023/10/03 00:55:21;;;;;;;;;;;;;;;;;;5015931;28;19910;-30
2023/10/03 00:57:47;;;;;;;;;;;;;;;;;;5015996;28;19920;-28
2023/10/03 01:00:16;;;;;;;;;;;;;;;;;;5015759;28;20318;-27
2023/10/03 01:02:42;;;;;;;;;;;;;;;;;;5015646;28;20388;-34
2023/10/03 01:05:14;;;;;;;;;;;;;;;;;;5015448;28;19968;-31
2023/10/03 01:07:40;;;;;;;;;;;;;;;;;;5015523;28;19936;-29
2023/10/03 01:10:07;;;;;;;;;;;;;;;;;;5015205;28;20257;-30
2023/10/03 01:12:35;;;;;;;;;;;;;;;;;;5015495;28;19917;-30
2023/10/03 01:15:05;;;;;;;;;;;;;;;;;;5015508;28;19917;-27
2023/10/03 01:17:33;;;;;;;;;;;;;;;;;;5015324;28;20016;-25
2023/10/03 01:20:00;;;;;;;;;;;;;;;;;;5015601;28;19913;-28
2023/10/03 01:22:26;;;;;;;;;;;;;;;;;;5015587;28;19909;-30
2023/10/03 01:24:52;;;;;;;;;;;;;;;;;;5015345;28;19916;-25
2023/10/03 01:27:19;;;;;;;;;;;;;;;;;;5015420;28;20229;-29
2023/10/03 01:29:45;;;;;;;;;;;;;;;;;;5015619;28;19995;-29
2023/10/03 01:32:11;;;;;;;;;;;;;;;;;;5015253;28;19910;-28
2023/10/03 01:34:37;;;;;;;;;;;;;;;;;;5015571;28;19955;-28
2023/10/03 01:37:03;;;;;;;;;;;;;;;;;;5015275;28;19914;-28
2023/10/03 01:39:30;;;;;;;;;;;;;;;;;;5015178;28;19913;-25
2023/10/03 01:41:56;;;;;;;;;;;;;;;;;;5014985;28;19910;-28
2023/10/03 01:44:23;;;;;;;;;;;;;;;;;;5015390;28;19914;-25
2023/10/03 01:46:50;;;;;;;;;;;;;;;;;;5015315;28;19909;-25
2023/10/03 01:49:16;;;;;;;;;;;;;;;;;;5015089;28;19948;-26
2023/10/03 01:51:43;;;;;;;;;;;;;;;;;;5015321;28;20222;-24
2023/10/03 01:54:09;;;;;;;;;;;;;;;;;;5014880;28;19951;-29
2023/10/03 01:56:35;;;;;;;;;;;;;;;;;;5015306;28;19910;-31
2023/10/03 01:59:01;;;;;;;;;;;;;;;;;;5015117;28;20285;-26
2023/10/03 02:01:28;;;;;;;;;;;;;;;;;;5015213;28;19913;-28
2023/10/03 02:03:55;;;;;;;;;;;;;;;;;;5014863;28;19967;-28
2023/10/03 02:06:21;;;;;;;;;;;;;;;;;;5014904;28;19924;-28
2023/10/03 02:08:47;;;;;;;;;;;;;;;;;;5015139;28;19984;-31
2023/10/03 02:11:13;;;;;;;;;;;;;;;;;;5014827;28;19924;-26
2023/10/03 02:13:40;;;;;;;;;;;;;;;;;;5014793;28;19909;-26
2023/10/03 02:16:07;;;;;;;;;;;;;;;;;;5015164;28;20338;-27
2023/10/03 02:18:33;;;;;;;;;;;;;;;;;;5014685;28;19917;-26
2023/10/03 02:21:03;;;;;;;;;;;;;;;;;;5018223;28;19920;-28
2023/10/03 02:23:30;;;;;;;;;;;;;;;;;;5018584;28;19979;-29
2023/10/03 02:25:56;;;;;;;;;;;;;;;;;;5019369;28;19921;-25
2023/10/03 02:28:22;;;;;;;;;;;;;;;;;;5018824;28;19909;-28
2023/10/03 02:30:48;;;;;;;;;;;;;;;;;;5018815;28;19910;-24
2023/10/03 02:33:15;;;;;;;;;;;;;;;;;;5018592;28;19968;-25
2023/10/03 02:35:42;;;;;;;;;;;;;;;;;;5018459;28;19910;-28
2023/10/03 02:38:24;;;;;;;;;;;;;;;;;;5018370;28;20027;-27
2023/10/03 02:40:50;;;;;;;;;;;;;;;;;;5018631;28;20358;-29
2023/10/03 02:43:16;;;;;;;;;;;;;;;;;;5018477;28;19909;-29
2023/10/03 02:45:42;;;;;;;;;;;;;;;;;;5018249;28;20257;-30
2023/10/03 02:48:15;;;;;;;;;;;;;;;;;;5018197;28;20290;-29
2023/10/03 02:50:41;;;;;;;;;;;;;;;;;;5018438;28;20270;-33
2023/10/03 02:53:29;;;;;;;;;;;;;;;;;;5018265;28;19914;-28
2023/10/03 02:55:58;;;;;;;;;;;;;;;;;;5018417;28;19966;-27
2023/10/03 02:58:24;;;;;;;;;;;;;;;;;;5018222;28;20013;-29
2023/10/03 03:00:50;;;;;;;;;;;;;;;;;;5018497;28;19910;-25
2023/10/03 03:03:16;;;;;;;;;;;;;;;;;;5017828;28;20060;-26
2023/10/03 03:05:43;;;;;;;;;;;;;;;;;;5017790;28;19979;-28
2023/10/03 03:10:44;;;;;;;;;;;;;;;;;;5017788;28;19913;-25
2023/10/03 03:13:13;;;;;;;;;;;;;;;;;;5017701;28;19920;-31
2023/10/03 03:15:43;;;;;;;;;;;;;;;;;;5018050;28;19980;-26
2023/10/03 03:18:09;;;;;;;;;;;;;;;;;;5016626;28;19914;-28
2023/10/03 03:20:42;;;;;;;;;;;;;;;;;;5017630;28;19971;-30
2023/10/03 03:23:10;;;;;;;;;;;;;;;;;;5017666;28;20375;-27
2023/10/03 03:25:42;;;;;;;;;;;;;;;;;;5017799;28;20007;-31
2023/10/03 03:28:14;;;;;;;;;;;;;;;;;;5017733;28;20260;-27
2023/10/03 03:30:45;;;;;;;;;;;;;;;;;;5017314;28;19909;-28
2023/10/03 03:33:11;;;;;;;;;;;;;;;;;;5017092;28;19916;-26
2023/10/03 03:35:40;;;;;;;;;;;;;;;;;;5017551;28;19920;-32
2023/10/03 03:38:13;;;;;;;;;;;;;;;;;;5017128;28;19918;-27
2023/10/03 03:40:45;;;;;;;;;;;;;;;;;;5017154;28;19910;-31
2023/10/03 03:43:12;;;;;;;;;;;;;;;;;;5017361;28;19940;-26
2023/10/03 03:45:39;;;;;;;;;;;;;;;;;;5017065;28;20008;-31
2023/10/03 03:48:06;;;;;;;;;;;;;;;;;;5017229;28;19933;-29
2023/10/03 03:50:32;;;;;;;;;;;;;;;;;;5016923;28;19913;-32
2023/10/03 03:53:02;;;;;;;;;;;;;;;;;;5016750;28;19910;-27
2023/10/03 03:55:29;;;;;;;;;;;;;;;;;;5017149;28;20013;-25
2023/10/03 03:57:56;;;;;;;;;;;;;;;;;;5016648;28;19909;-25
2023/10/03 04:00:28;;;;;;;;;;;;;;;;;;5017027;28;20392;-27
2023/10/03 04:02:57;;;;;;;;;;;;;;;;;;5016565;28;19921;-28
2023/10/03 04:05:22;;;;;;;;;;;;;;;;;;5015736;28;19921;-29
2023/10/03 04:07:49;;;;;;;;;;;;;;;;;;5016483;28;19916;-26
2023/10/03 04:10:15;;;;;;;;;;;;;;;;;;5016257;28;19957;-30
2023/10/03 04:12:44;;;;;;;;;;;;;;;;;;5016288;28;19952;-30
2023/10/03 04:15:19;;;;;;;;;;;;;;;;;;5017344;28;20008;-27
2023/10/03 04:17:46;;;;;;;;;;;;;;;;;;5016406;28;20285;-27
2023/10/03 04:22:50;;;;;;;;;;;;;;;;;;5016371;28;19945;-26
2023/10/03 04:25:19;;;;;;;;;;;;;;;;;;5016541;28;20336;-32
2023/10/03 04:27:45;;;;;;;;;;;;;;;;;;5016290;28;19918;-28
2023/10/03 04:30:13;;;;;;;;;;;;;;;;;;5015203;28;19910;-31
2023/10/03 04:32:39;;;;;;;;;;;;;;;;;;5016078;28;19909;-32
2023/10/03 04:35:12;;;;;;;;;;;;;;;;;;5015946;28;20288;-29
2023/10/03 04:37:41;;;;;;;;;;;;;;;;;;5016329;28;19917;-28
2023/10/03 04:40:09;;;;;;;;;;;;;;;;;;5016260;28;20059;-27
2023/10/03 04:42:35;;;;;;;;;;;;;;;;;;5016012;28;19945;-27
2023/10/03 04:45:05;;;;;;;;;;;;;;;;;;5016068;28;20004;-26
2023/10/03 04:47:32;;;;;;;;;;;;;;;;;;5016056;28;19909;-30
2023/10/03 04:49:59;;;;;;;;;;;;;;;;;;5015885;28;19909;-31
2023/10/03 04:52:24;;;;;;;;;;;;;;;;;;5015622;28;19916;-30
2023/10/03 04:54:50;;;;;;;;;;;;;;;;;;5015527;28;19910;-29
2023/10/03 04:57:16;;;;;;;;;;;;;;;;;;5015948;28;20221;-31
2023/10/03 04:59:42;;;;;;;;;;;;;;;;;;5015455;28;19913;-30
2023/10/03 05:02:11;;;;;;;;;;;;;;;;;;5015753;28;19921;-27
2023/10/03 05:04:36;;;;;;;;;;;;;;;;;;5015354;28;20328;-29
2023/10/03 05:07:02;;;;;;;;;;;;;;;;;;5015017;28;20020;-28
2023/10/03 05:09:30;;;;;;;;;;;;;;;;;;5015563;28;19955;-24
2023/10/03 05:11:56;;;;;;;;;;;;;;;;;;5016381;28;19913;-28
2023/10/03 05:14:22;;;;;;;;;;;;;;;;;;5015523;28;20415;-28
2023/10/03 05:16:50;;;;;;;;;;;;;;;;;;5015491;28;19919;-28
2023/10/03 05:19:16;;;;;;;;;;;;;;;;;;5015146;28;20012;-27
2023/10/03 05:21:43;;;;;;;;;;;;;;;;;;5014055;28;20305;-26
2023/10/03 05:24:10;;;;;;;;;;;;;;;;;;5014982;28;19909;-26
2023/10/03 05:26:36;;;;;;;;;;;;;;;;;;5015133;28;19997;-28
2023/10/03 05:29:03;;;;;;;;;;;;;;;;;;5015033;28;19956;-28
2023/10/03 05:31:29;;;;;;;;;;;;;;;;;;5015463;28;20362;-29
2023/10/03 05:33:56;;;;;;;;;;;;;;;;;;5014923;28;19949;-26
2023/10/03 05:36:22;;;;;;;;;;;;;;;;;;5015070;28;19996;-26
2023/10/03 05:38:49;;;;;;;;;;;;;;;;;;5015065;28;19921;-25
2023/10/03 05:41:16;;;;;;;;;;;;;;;;;;5014806;28;19909;-27
2023/10/03 05:43:43;;;;;;;;;;;;;;;;;;5015059;28;19910;-29
2023/10/03 05:46:11;;;;;;;;;;;;;;;;;;5014831;28;19916;-29
2023/10/03 05:48:37;;;;;;;;;;;;;;;;;;5015658;28;19953;-29
2023/10/03 05:51:03;;;;;;;;;;;;;;;;;;5013678;28;20242;-28
2023/10/03 05:53:30;;;;;;;;;;;;;;;;;;5014661;28;19909;-32
2023/10/03 05:55:56;;;;;;;;;;;;;;;;;;5014430;28;20345;-26
2023/10/03 05:58:22;;;;;;;;;;;;;;;;;;5014398;28;19960;-30
2023/10/03 06:00:49;;;;;;;;;;;;;;;;;;5014874;28;19941;-29
2023/10/03 06:03:15;;;;;;;;;;;;;;;;;;5014620;28;19910;-28
2023/10/03 06:05:41;;;;;;;;;;;;;;;;;;5013272;28;20268;-27
2023/10/03 06:08:09;;;;;;;;;;;;;;;;;;5013418;28;19914;-30
2023/10/03 06:10:35;;;;;;;;;;;;;;;;;;5014683;28;19917;-32
2023/10/03 06:13:01;;;;;;;;;;;;;;;;;;5013990;28;19910;-26
2023/10/03 06:15:27;;;;;;;;;;;;;;;;;;5013850;28;20371;-30
2023/10/03 06:17:53;;;;;;;;;;;;;;;;;;5013887;28;19929;-27
2023/10/03 06:20:19;;;;;;;;;;;;;;;;;;5013731;28;19913;-30
2023/10/03 06:22:45;;;;;;;;;;;;;;;;;;5012606;28;20268;-27
2023/10/03 06:25:11;;;;;;;;;;;;;;;;;;5013726;28;19917;-32
2023/10/03 06:27:37;;;;;;;;;;;;;;;;;;5013707;28;19920;-35
2023/10/03 06:30:03;;;;;;;;;;;;;;;;;;5014283;28;20012;-32
2023/10/03 06:32:29;;;;;;;;;;;;;;;;;;5013585;28;19909;-26
2023/10/03 06:34:55;;;;;;;;;;;;;;;;;;5013829;28;19910;-28
2023/10/03 06:37:23;;;;;;;;;;;;;;;;;;5014201;28;19913;-30
2023/10/03 06:39:49;;;;;;;;;;;;;;;;;;5014466;28;20340;-25
2023/10/03 06:42:15;;;;;;;;;;;;;;;;;;5014203;28;19910;-28
2023/10/03 06:44:42;;;;;;;;;;;;;;;;;;5014399;28;20336;-26
2023/10/03 06:47:09;;;;;;;;;;;;;;;;;;5014231;28;19909;-26
2023/10/03 06:49:35;;;;;;;;;;;;;;;;;;5014239;28;19913;-28
2023/10/03 06:52:01;;;;;;;;;;;;;;;;;;5014013;28;20341;-24
2023/10/03 06:54:27;;;;;;;;;;;;;;;;;;5014001;28;19914;-30
2023/10/03 06:56:53;;;;;;;;;;;;;;;;;;5013958;28;19924;-30
2023/10/03 06:59:19;;;;;;;;;;;;;;;;;;5012824;28;20000;-29
2023/10/03 07:01:46;;;;;;;;;;;;;;;;;;5013847;28;19915;-29
2023/10/03 07:04:12;;;;;;;;;;;;;;;;;;5013892;28;20272;-29
2023/10/03 07:06:38;;;;;;;;;;;;;;;;;;5014937;28;19909;-29
2023/10/03 07:09:07;;;;;;;;;;;;;;;;;;5017294;28;19914;-27
2023/10/03 07:11:33;;;;;;;;;;;;;;;;;;5017538;28;19913;-30
2023/10/03 07:13:59;;;;;;;;;;;;;;;;;;5017320;28;20300;-24
2023/10/03 07:16:25;;;;;;;;;;;;;;;;;;5017279;28;20234;-27
2023/10/03 07:18:51;;;;;;;;;;;;;;;;;;5017112;28;19920;-25
2023/10/03 07:21:18;;;;;;;;;;;;;;;;;;5017673;28;19921;-29
2023/10/03 07:23:44;;;;;;;;;;;;;;;;;;5017230;28;20320;-26
2023/10/03 07:26:10;;;;;;;;;;;;;;;;;;5017170;28;20252;-29
2023/10/03 07:28:38;;;;;;;;;;;;;;;;;;5017255;28;19909;-26
2023/10/03 07:31:05;;;;;;;;;;;;;;;;;;5016162;28;19909;-25
2023/10/03 07:33:31;;;;;;;;;;;;;;;;;;5015974;28;19909;-28
2023/10/03 07:36:02;;;;;;;;;;;;;;;;;;5017087;28;19909;-27
2023/10/03 07:38:28;;;;;;;;;;;;;;;;;;5017013;28;19917;-28
2023/10/03 07:40:54;;;;;;;;;;;;;;;;;;5017137;28;20308;-33
2023/10/03 07:43:20;;;;;;;;;;;;;;;;;;5016844;28;19913;-32
2023/10/03 07:45:46;;;;;;;;;;;;;;;;;;5016821;28;20320;-25
2023/10/03 07:48:12;;;;;;;;;;;;;;;;;;5016998;28;20291;-26
2023/10/03 07:50:38;;;;;;;;;;;;;;;;;;5016788;28;19913;-28
2023/10/03 07:53:04;;;;;;;;;;;;;;;;;;5016770;28;19910;-29
2023/10/03 07:55:32;;;;;;;;;;;;;;;;;;5016950;28;19910;-27
2023/10/03 07:57:58;;;;;;;;;;;;;;;;;;5016529;28;19920;-26
2023/10/03 08:00:26;;;;;;;;;;;;;;;;;;5016803;28;20340;-25
2023/10/03 08:02:52;;;;;;;;;;;;;;;;;;5016928;28;20347;-30
2023/10/03 08:05:18;;;;;;;;;;;;;;;;;;5016192;28;19983;-30
2023/10/03 08:07:47;;;;;;;;;;;;;;;;;;5015619;28;20427;-28
2023/10/03 08:10:14;;;;;;;;;;;;;;;;;;5016404;28;19914;-30
2023/10/03 08:12:40;;;;;;;;;;;;;;;;;;5016682;28;19933;-33
2023/10/03 08:15:17;;;;;;;;;;;;;;;;;;5016246;28;19918;-31
2023/10/03 08:17:43;;;;;;;;;;;;;;;;;;5015938;28;19909;-31
2023/10/03 08:20:09;;;;;;;;;;;;;;;;;;5016500;28;19913;-32
2023/10/03 08:22:41;;;;;;;;;;;;;;;;;;5016513;28;19991;-28
2023/10/03 08:25:07;;;;;;;;;;;;;;;;;;5016677;28;19909;-27
2023/10/03 08:27:33;;;;;;;;;;;;;;;;;;5016099;28;19913;-32
2023/10/03 08:30:01;;;;;;;;;;;;;;;;;;5015989;28;19921;-26
2023/10/03 08:32:27;;;;;;;;;;;;;;;;;;5015016;28;19909;-30
2023/10/03 08:34:52;;;;;;;;;;;;;;;;;;5016147;28;19992;-29
2023/10/03 08:37:21;;;;;;;;;;;;;;;;;;5016098;28;19909;-26
2023/10/03 08:39:48;;;;;;;;;;;;;;;;;;5015880;28;19972;-27
2023/10/03 08:42:15;;;;;;;;;;;;;;;;;;5015490;28;19921;-26
2023/10/03 08:44:41;;;;;;;;;;;;;;;;;;5015132;28;19964;-31
2023/10/03 08:47:09;;;;;;;;;;;;;;;;;;5015131;28;19976;-29
2023/10/03 08:49:38;;;;;;;;;;;;;;;;;;5015088;28;19920;-28
2023/10/03 08:52:04;;;;;;;;;;;;;;;;;;5014963;28;19917;-29
2023/10/03 08:54:36;;;;;;;;;;;;;;;;;;5014971;28;19910;-27
2023/10/03 08:57:02;;;;;;;;;;;;;;;;;;5015384;28;19972;-28
2023/10/03 08:59:30;;;;;;;;;;;;;;;;;;5014871;28;19952;-25
2023/10/03 09:01:58;;;;;;;;;;;;;;;;;;5013806;28;19972;-29
2023/10/03 09:04:25;;;;;;;;;;;;;;;;;;5014664;28;19933;-30
2023/10/03 09:06:52;;;;;;;;;;;;;;;;;;5014742;28;20351;-26
2023/10/03 09:09:19;;;;;;;;;;;;;;;;;;5014298;28;20005;-28
2023/10/03 09:11:51;;;;;;;;;;;;;;;;;;5014682;28;20300;-28
2023/10/03 09:14:20;;;;;;;;;;;;;;;;;;5014236;28;19909;-29
2023/10/03 09:16:50;;;;;;;;;;;;;;;;;;5013759;28;20293;-29
2023/10/03 09:19:23;;;;;;;;;;;;;;;;;;5014465;28;19957;-28
2023/10/03 09:21:51;;;;;;;;;;;;;;;;;;5014650;28;19916;-24
2023/10/03 09:24:17;;;;;;;;;;;;;;;;;;5015081;28;19920;-28
2023/10/03 09:26:46;;;;;;;;;;;;;;;;;;5015360;28;20051;-28
2023/10/03 09:29:13;;;;;;;;;;;;;;;;;;5014304;28;19940;-28
2023/10/03 09:31:41;;;;;;;;;;;;;;;;;;5014920;28;20007;-26
2023/10/03 09:34:07;;;;;;;;;;;;;;;;;;5013777;28;19921;-28
2023/10/03 09:36:35;;;;;;;;;;;;;;;;;;5014883;28;19913;-27
2023/10/03 09:39:02;;;;;;;;;;;;;;;;;;5015121;28;19980;-27
2023/10/03 09:41:28;;;;;;;;;;;;;;;;;;5014853;28;19920;-26
2023/10/03 09:43:54;;;;;;;;;;;;;;;;;;5014773;28;20016;-24
2023/10/03 09:46:38;;;;;;;;;;;;;;;;;;5013839;28;19910;-33
2023/10/03 09:49:08;;;;;;;;;;;;;;;;;;5013801;28;19914;-30
2023/10/03 09:51:45;;;;;;;;;;;;;;;;;;5014880;28;20347;-27
2023/10/03 09:54:12;;;;;;;;;;;;;;;;;;5014892;28;19915;-27
2023/10/03 09:56:40;;;;;;;;;;;;;;;;;;5014873;28;19909;-27
2023/10/03 09:59:06;;;;;;;;;;;;;;;;;;5014885;28;19918;-27
2023/10/03 10:01:32;;;;;;;;;;;;;;;;;;5014537;28;20013;-25
2023/10/03 10:03:59;;;;;;;;;;;;;;;;;;5012970;28;19925;-27
2023/10/03 10:06:28;;;;;;;;;;;;;;;;;;5014350;28;19917;-31
2023/10/03 10:08:58;;;;;;;;;;;;;;;;;;5014280;28;19913;-25
2023/10/03 10:11:26;;;;;;;;;;;;;;;;;;5014561;28;20268;-31
2023/10/03 10:13:52;;;;;;;;;;;;;;;;;;5014311;28;20360;-28
2023/10/03 10:16:22;;;;;;;;;;;;;;;;;;5014387;28;19909;-28
2023/10/03 10:18:49;;;;;;;;;;;;;;;;;;5014424;28;20415;-29
2023/10/03 10:21:15;;;;;;;;;;;;;;;;;;5014467;28;19921;-27
2023/10/03 10:23:40;;;;;;;;;;;;;;;;;;5014499;28;19909;-30
2023/10/03 10:26:06;;;;;;;;;;;;;;;;;;5014406;28;19941;-23
2023/10/03 10:28:34;;;;;;;;;;;;;;;;;;5014728;28;19910;-28
2023/10/03 10:30:59;;;;;;;;;;;;;;;;;;5014400;28;19920;-27
2023/10/03 10:33:27;;;;;;;;;;;;;;;;;;5014215;28;19910;-25
2023/10/03 10:35:56;;;;;;;;;;;;;;;;;;5014942;28;19920;-27
2023/10/03 10:38:22;;;;;;;;;;;;;;;;;;5014556;28;19963;-31
2023/10/03 10:40:48;;;;;;;;;;;;;;;;;;5014725;28;20206;-28
2023/10/03 10:43:16;;;;;;;;;;;;;;;;;;5017752;28;19913;-28
2023/10/03 10:45:44;;;;;;;;;;;;;;;;;;5017938;28;19955;-25
2023/10/03 10:48:12;;;;;;;;;;;;;;;;;;5018092;28;20008;-32
2023/10/03 10:50:38;;;;;;;;;;;;;;;;;;5017874;28;19910;-30
2023/10/03 10:53:05;;;;;;;;;;;;;;;;;;5018130;28;20251;-29
2023/10/03 10:55:33;;;;;;;;;;;;;;;;;;5017841;28;19909;-30
2023/10/03 10:57:59;;;;;;;;;;;;;;;;;;5017071;28;19909;-24
2023/10/03 11:00:25;;;;;;;;;;;;;;;;;;5016811;28;20331;-26
2023/10/03 11:02:51;;;;;;;;;;;;;;;;;;5016774;28;20392;-28
2023/10/03 11:05:17;;;;;;;;;;;;;;;;;;5016481;28;19932;-27
2023/10/03 11:07:43;;;;;;;;;;;;;;;;;;5016724;28;19914;-27
2023/10/03 11:10:12;;;;;;;;;;;;;;;;;;5016900;28;20045;-26
2023/10/03 11:12:38;;;;;;;;;;;;;;;;;;5016581;28;19916;-28
2023/10/03 11:15:05;;;;;;;;;;;;;;;;;;5016929;28;19953;-24
2023/10/03 11:17:33;;;;;;;;;;;;;;;;;;5016630;28;19909;-27
2023/10/03 11:20:00;;;;;;;;;;;;;;;;;;5016948;28;20256;-25
2023/10/03 11:22:26;;;;;;;;;;;;;;;;;;5017193;28;19909;-28
2023/10/03 11:24:52;;;;;;;;;;;;;;;;;;5017439;28;20019;-28
2023/10/03 11:27:18;;;;;;;;;;;;;;;;;;5017175;28;19910;-31
2023/10/03 11:29:46;;;;;;;;;;;;;;;;;;5017503;28;20364;-33
2023/10/03 11:32:12;;;;;;;;;;;;;;;;;;5017382;28;20363;-26
2023/10/03 11:34:40;;;;;;;;;;;;;;;;;;5017120;28;19909;-27
2023/10/03 11:37:06;;;;;;;;;;;;;;;;;;5017448;28;20312;-28
2023/10/03 11:39:32;;;;;;;;;;;;;;;;;;5017027;28;19913;-24
2023/10/03 11:42:00;;;;;;;;;;;;;;;;;;5016989;28;19910;-26
2023/10/03 11:44:27;;;;;;;;;;;;;;;;;;5017324;28;20302;-30
2023/10/03 11:46:54;;;;;;;;;;;;;;;;;;5016980;28;19910;-29
2023/10/03 11:49:20;;;;;;;;;;;;;;;;;;5017134;28;19952;-31
2023/10/03 11:51:47;;;;;;;;;;;;;;;;;;5016451;28;20344;-29
2023/10/03 11:54:16;;;;;;;;;;;;;;;;;;5016270;28;19921;-29
2023/10/03 11:56:42;;;;;;;;;;;;;;;;;;5016770;28;19920;-32
2023/10/03 11:59:08;;;;;;;;;;;;;;;;;;5016898;28;19928;-28
2023/10/03 12:01:35;;;;;;;;;;;;;;;;;;5015579;28;19913;-25
2023/10/03 12:04:01;;;;;;;;;;;;;;;;;;5016112;28;19917;-27
2023/10/03 12:06:27;;;;;;;;;;;;;;;;;;5016529;28;19920;-28
2023/10/03 12:08:53;;;;;;;;;;;;;;;;;;5016435;28;20408;-27
2023/10/03 12:11:20;;;;;;;;;;;;;;;;;;5016327;28;19934;-30
2023/10/03 12:13:46;;;;;;;;;;;;;;;;;;5016561;28;20256;-31
2023/10/03 12:16:12;;;;;;;;;;;;;;;;;;5016360;28;19910;-29
2023/10/03 12:18:38;;;;;;;;;;;;;;;;;;5016291;28;19975;-28
2023/10/03 12:21:04;;;;;;;;;;;;;;;;;;5016006;28;19941;-29
2023/10/03 12:23:30;;;;;;;;;;;;;;;;;;5016004;28;20269;-28
2023/10/03 12:25:57;;;;;;;;;;;;;;;;;;5016091;28;19910;-26
2023/10/03 12:28:23;;;;;;;;;;;;;;;;;;5016294;28;19913;-32
2023/10/03 12:30:52;;;;;;;;;;;;;;;;;;5016123;28;19925;-28
2023/10/03 12:33:19;;;;;;;;;;;;;;;;;;5016027;28;19920;-28
2023/10/03 12:35:45;;;;;;;;;;;;;;;;;;5015042;28;19909;-26
2023/10/03 12:38:11;;;;;;;;;;;;;;;;;;5015873;28;19910;-29
2023/10/03 12:40:37;;;;;;;;;;;;;;;;;;5015939;28;19917;-28
2023/10/03 12:43:03;;;;;;;;;;;;;;;;;;5015632;28;19916;-26
2023/10/03 12:45:29;;;;;;;;;;;;;;;;;;5015695;28;19910;-29
2023/10/03 12:47:56;;;;;;;;;;;;;;;;;;5015415;28;19979;-30
2023/10/03 12:50:23;;;;;;;;;;;;;;;;;;5015458;28;20356;-29
2023/10/03 12:52:49;;;;;;;;;;;;;;;;;;5014295;28;20363;-29
2023/10/03 12:55:15;;;;;;;;;;;;;;;;;;5015542;28;19996;-31
2023/10/03 12:57:42;;;;;;;;;;;;;;;;;;5014206;28;20190;-26
2023/10/03 13:00:08;;;;;;;;;;;;;;;;;;5014983;28;19988;-31
2023/10/03 13:02:34;;;;;;;;;;;;;;;;;;5015447;28;20008;-30
2023/10/03 13:05:01;;;;;;;;;;;;;;;;;;5015166;28;20336;-28
2023/10/03 13:07:27;;;;;;;;;;;;;;;;;;5015559;28;20268;-27
2023/10/03 13:09:54;;;;;;;;;;;;;;;;;;5015268;28;19909;-24
2023/10/03 13:12:20;;;;;;;;;;;;;;;;;;5015328;28;19929;-28
2023/10/03 13:14:46;;;;;;;;;;;;;;;;;;5016006;28;19913;-31
2023/10/03 13:17:13;;;;;;;;;;;;;;;;;;5015223;28;19914;-24
2023/10/03 13:19:39;;;;;;;;;;;;;;;;;;5015038;28;19914;-29
2023/10/03 13:22:05;;;;;;;;;;;;;;;;;;5015348;28;19910;-26
2023/10/03 13:24:31;;;;;;;;;;;;;;;;;;5015130;28;19909;-29
2023/10/03 13:26:57;;;;;;;;;;;;;;;;;;5014851;28;20316;-30
2023/10/03 13:29:23;;;;;;;;;;;;;;;;;;5014843;28;19920;-31
2023/10/03 13:31:52;;;;;;;;;;;;;;;;;;5014879;28;19971;-25
2023/10/03 13:34:18;;;;;;;;;;;;;;;;;;5015102;28;20248;-25
2023/10/03 13:36:44;;;;;;;;;;;;;;;;;;5014000;28;19920;-28
2023/10/03 13:39:12;;;;;;;;;;;;;;;;;;5013741;28;19913;-29
2023/10/03 13:41:42;;;;;;;;;;;;;;;;;;5014669;28;19909;-25
2023/10/03 13:44:09;;;;;;;;;;;;;;;;;;5013596;28;19909;-28
2023/10/03 13:46:35;;;;;;;;;;;;;;;;;;5014914;28;19910;-26
2023/10/03 13:49:01;;;;;;;;;;;;;;;;;;5015063;28;20056;-30
2023/10/03 13:51:31;;;;;;;;;;;;;;;;;;5014640;28;20355;-28
2023/10/03 13:53:57;;;;;;;;;;;;;;;;;;5014557;28;19910;-30
2023/10/03 13:56:23;;;;;;;;;;;;;;;;;;5014795;28;20250;-25
2023/10/03 13:58:49;;;;;;;;;;;;;;;;;;5014961;28;19945;-26
2023/10/03 14:01:15;;;;;;;;;;;;;;;;;;5015081;28;19910;-25
2023/10/03 14:03:46;;;;;;;;;;;;;;;;;;5014555;28;19932;-27
2023/10/03 14:06:19;;;;;;;;;;;;;;;;;;5015738;28;19971;-27
2023/10/03 14:08:45;;;;;;;;;;;;;;;;;;5014754;28;20316;-31
2023/10/03 14:11:12;;;;;;;;;;;;;;;;;;5014500;28;20004;-24
2023/10/03 14:13:39;;;;;;;;;;;;;;;;;;5014423;28;19960;-25
2023/10/03 14:16:06;;;;;;;;;;;;;;;;;;5016209;28;19956;-28
2023/10/03 14:18:32;;;;;;;;;;;;;;;;;;5018621;28;19909;-31
2023/10/03 14:20:58;;;;;;;;;;;;;;;;;;5018280;28;19932;-30
2023/10/03 14:23:24;;;;;;;;;;;;;;;;;;5018206;28;19933;-25
2023/10/03 14:25:50;;;;;;;;;;;;;;;;;;5018079;28;19909;-30
2023/10/03 14:28:16;;;;;;;;;;;;;;;;;;5018374;28;19910;-29
2023/10/03 14:30:42;;;;;;;;;;;;;;;;;;5018173;28;19992;-27
2023/10/03 14:33:10;;;;;;;;;;;;;;;;;;5018557;28;20084;-24
2023/10/03 14:35:36;;;;;;;;;;;;;;;;;;5018768;28;19910;-27
2023/10/03 14:38:02;;;;;;;;;;;;;;;;;;5018628;28;19920;-26
2023/10/03 14:40:28;;;;;;;;;;;;;;;;;;5017954;28;19918;-28
2023/10/03 14:42:54;;;;;;;;;;;;;;;;;;5018046;28;20004;-28
2023/10/03 14:45:20;;;;;;;;;;;;;;;;;;5017081;28;19910;-31
2023/10/03 14:47:47;;;;;;;;;;;;;;;;;;5017002;28;19916;-30
2023/10/03 14:50:13;;;;;;;;;;;;;;;;;;5018056;28;20352;-25
2023/10/03 14:52:39;;;;;;;;;;;;;;;;;;5018092;28;19947;-29
2023/10/03 14:55:05;;;;;;;;;;;;;;;;;;5017756;28;20407;-27
2023/10/03 14:57:31;;;;;;;;;;;;;;;;;;5017595;28;19917;-27
2023/10/03 14:59:57;;;;;;;;;;;;;;;;;;5017870;28;19943;-26
2023/10/03 15:02:23;;;;;;;;;;;;;;;;;;5017570;28;19915;-26
2023/10/03 15:04:50;;;;;;;;;;;;;;;;;;5017153;28;19921;-27
2023/10/03 15:07:20;;;;;;;;;;;;;;;;;;5017339;28;19964;-28
2023/10/03 15:09:45;;;;;;;;;;;;;;;;;;5017387;28;19971;-30
2023/10/03 15:12:12;;;;;;;;;;;;;;;;;;5016869;28;20392;-24
2023/10/03 15:14:38;;;;;;;;;;;;;;;;;;5017340;28;19910;-27
2023/10/03 15:17:04;;;;;;;;;;;;;;;;;;5015808;28;19910;-26
2023/10/03 15:19:33;;;;;;;;;;;;;;;;;;5016855;28;19914;-25
2023/10/03 15:22:00;;;;;;;;;;;;;;;;;;5017094;28;19936;-31
2023/10/03 15:24:26;;;;;;;;;;;;;;;;;;5017100;28;20260;-27
2023/10/03 15:26:52;;;;;;;;;;;;;;;;;;5015907;28;19909;-27
2023/10/03 15:29:18;;;;;;;;;;;;;;;;;;5016408;28;20304;-28
2023/10/03 15:31:44;;;;;;;;;;;;;;;;;;5015546;28;19913;-25
2023/10/03 15:34:11;;;;;;;;;;;;;;;;;;5015481;28;20005;-29
2023/10/03 15:36:37;;;;;;;;;;;;;;;;;;5016702;28;19974;-26
2023/10/03 15:39:03;;;;;;;;;;;;;;;;;;5016440;28;20008;-28
2023/10/03 15:41:29;;;;;;;;;;;;;;;;;;5016833;28;20023;-28
2023/10/03 15:43:56;;;;;;;;;;;;;;;;;;5015449;28;19916;-26
2023/10/03 15:46:22;;;;;;;;;;;;;;;;;;5016742;28;19960;-27
2023/10/03 15:48:47;;;;;;;;;;;;;;;;;;5016897;28;19910;-27
2023/10/03 15:51:14;;;;;;;;;;;;;;;;;;5016372;28;19929;-27
2023/10/03 15:53:41;;;;;;;;;;;;;;;;;;5016743;28;20245;-29
2023/10/03 15:56:09;;;;;;;;;;;;;;;;;;5016712;28;19988;-27
2023/10/03 15:58:35;;;;;;;;;;;;;;;;;;5016469;28;20260;-24
2023/10/03 16:01:01;;;;;;;;;;;;;;;;;;5016625;28;19910;-26
2023/10/03 16:03:27;;;;;;;;;;;;;;;;;;5016421;28;19917;-25
2023/10/03 16:05:55;;;;;;;;;;;;;;;;;;5015522;28;20013;-28
2023/10/03 16:08:21;;;;;;;;;;;;;;;;;;5016528;28;19909;-27
2023/10/03 16:10:47;;;;;;;;;;;;;;;;;;5015315;28;19909;-24
2023/10/03 16:13:17;;;;;;;;;;;;;;;;;;5016319;28;19913;-27
2023/10/03 16:15:43;;;;;;;;;;;;;;;;;;5016464;28;19913;-25
2023/10/03 16:18:09;;;;;;;;;;;;;;;;;;5016243;28;19909;-25
2023/10/03 16:20:37;;;;;;;;;;;;;;;;;;5016020;28;19914;-28
2023/10/03 16:23:07;;;;;;;;;;;;;;;;;;5016413;28;19909;-27
2023/10/03 16:25:33;;;;;;;;;;;;;;;;;;5016412;28;19909;-26
2023/10/03 16:27:59;;;;;;;;;;;;;;;;;;5016525;28;20337;-32
2023/10/03 16:30:25;;;;;;;;;;;;;;;;;;5016004;28;19979;-29
2023/10/03 16:32:51;;;;;;;;;;;;;;;;;;5015829;28;20004;-30
2023/10/03 16:35:17;;;;;;;;;;;;;;;;;;5016020;28;19909;-26
2023/10/03 16:37:44;;;;;;;;;;;;;;;;;;5016062;28;20205;-24
2023/10/03 16:40:11;;;;;;;;;;;;;;;;;;5015511;28;19968;-31
2023/10/03 16:42:38;;;;;;;;;;;;;;;;;;5015928;28;20337;-28
2023/10/03 16:45:04;;;;;;;;;;;;;;;;;;5016642;28;20276;-26
2023/10/03 16:47:30;;;;;;;;;;;;;;;;;;5014624;28;19916;-25
2023/10/03 16:49:56;;;;;;;;;;;;;;;;;;5015461;28;19956;-25